Time;durP1;ratioP1;P1;durP2;ratioP2;P2;SDS_P1;SDS_P2;PMS_P1;PMS_P2;Temp;Humidity;BMP_temperature;BMP_pressure;BME280_temperature;BME280_humidity;BME280_pressure;Samples;Min_cycle;Max_cycle;Signal;HPM_P1;HPM_P2
2021/06/08 00:00:16;;;;;;;5.30;4.05;;;11.30;98.20;;;;;;4926996;29;20135;-71
2021/06/08 00:02:44;;;;;;;7.40;3.75;;;11.40;97.70;;;;;;4927786;29;20039;-71
2021/06/08 00:05:11;;;;;;;10.52;4.80;;;11.60;97.20;;;;;;4929666;29;20482;-71
2021/06/08 00:07:39;;;;;;;6.57;4.72;;;11.70;97.40;;;;;;4924918;29;20946;-72
2021/06/08 00:10:07;;;;;;;5.72;4.30;;;11.80;97.40;;;;;;4921905;29;20335;-72
2021/06/08 00:12:35;;;;;;;6.47;4.50;;;11.90;97.30;;;;;;4924331;29;20067;-72
2021/06/08 00:15:03;;;;;;;8.57;5.57;;;12.10;97.30;;;;;;4926972;29;20091;-72
2021/06/08 00:17:31;;;;;;;7.05;4.57;;;12.20;97.30;;;;;;4929272;29;20512;-70
2021/06/08 00:19:59;;;;;;;6.75;4.85;;;12.30;97.40;;;;;;4926058;29;20130;-67
2021/06/08 00:22:27;;;;;;;11.73;6.45;;;12.40;97.00;;;;;;4928056;29;20068;-70
2021/06/08 00:24:55;;;;;;;9.82;5.30;;;12.40;97.10;;;;;;4928151;29;20551;-70
2021/06/08 00:27:22;;;;;;;9.73;6.78;;;12.40;97.00;;;;;;4926050;29;20068;-70
2021/06/08 00:29:49;;;;;;;11.63;6.82;;;12.40;96.90;;;;;;4929621;29;20020;-69
2021/06/08 00:32:17;;;;;;;11.68;6.47;;;12.40;96.70;;;;;;4925513;29;20115;-71
2021/06/08 00:34:44;;;;;;;9.23;5.80;;;12.50;96.90;;;;;;4924848;29;20053;-70
2021/06/08 00:37:12;;;;;;;12.30;5.28;;;12.50;97.20;;;;;;4927636;29;20043;-72
2021/06/08 00:39:39;;;;;;;6.90;4.60;;;12.50;96.80;;;;;;4924802;29;20170;-70
2021/06/08 00:42:07;;;;;;;7.93;3.65;;;12.60;96.70;;;;;;4926468;29;20032;-72
2021/06/08 00:44:35;;;;;;;6.82;3.17;;;12.70;96.50;;;;;;4925787;29;20154;-71
2021/06/08 00:47:02;;;;;;;3.72;2.40;;;12.90;96.30;;;;;;4926964;29;20527;-70
2021/06/08 00:49:30;;;;;;;5.75;2.45;;;13.00;96.30;;;;;;4923881;29;20043;-71
2021/06/08 00:51:57;;;;;;;7.03;2.10;;;13.20;96.10;;;;;;4926107;29;20024;-70
2021/06/08 00:54:24;;;;;;;2.58;1.70;;;13.50;95.40;;;;;;4924821;29;20028;-70
2021/06/08 00:56:52;;;;;;;2.55;1.02;;;13.70;93.80;;;;;;4926289;28;20423;-69
2021/06/08 00:59:19;;;;;;;1.60;0.52;;;13.80;94.00;;;;;;4923719;29;20047;-69
2021/06/08 01:01:47;;;;;;;1.50;0.80;;;13.90;93.10;;;;;;4925297;29;20122;-69
2021/06/08 01:04:14;;;;;;;1.10;0.57;;;14.00;93.50;;;;;;4923512;29;20490;-70
2021/06/08 01:06:47;;;;;;;2.20;0.60;;;14.10;92.90;;;;;;4925233;29;20028;-69
2021/06/08 01:09:14;;;;;;;1.67;0.75;;;14.20;93.10;;;;;;4925081;29;20024;-71
2021/06/08 01:11:42;;;;;;;3.80;0.52;;;14.20;92.90;;;;;;4926311;29;20031;-69
2021/06/08 01:14:10;;;;;;;1.17;0.47;;;14.20;92.50;;;;;;4924383;29;20854;-70
2021/06/08 01:16:39;;;;;;;1.75;0.50;;;14.30;92.00;;;;;;4924020;29;20576;-69
2021/06/08 01:19:06;;;;;;;2.05;0.50;;;14.40;92.30;;;;;;4925762;29;20040;-68
2021/06/08 01:21:35;;;;;;;2.08;0.40;;;14.50;92.00;;;;;;4926237;29;20110;-69
2021/06/08 01:24:03;;;;;;;1.15;0.60;;;14.50;91.60;;;;;;4924749;29;20023;-70
2021/06/08 01:26:31;;;;;;;1.80;0.80;;;14.60;91.60;;;;;;4925643;29;20040;-67
2021/06/08 01:29:01;;;;;;;0.95;0.35;;;14.60;91.60;;;;;;4924512;29;20024;-69
2021/06/08 01:31:31;;;;;;;2.05;0.57;;;14.80;90.80;;;;;;4923820;29;20111;-70
2021/06/08 01:33:59;;;;;;;0.95;0.50;;;14.90;91.00;;;;;;4923223;29;20050;-69
2021/06/08 01:36:30;;;;;;;0.90;0.60;;;15.00;90.80;;;;;;4925756;29;20110;-67
2021/06/08 01:38:57;;;;;;;1.27;0.55;;;15.10;91.20;;;;;;4925053;29;20430;-70
2021/06/08 01:41:26;;;;;;;1.02;0.40;;;15.20;90.50;;;;;;4924609;29;20035;-69
2021/06/08 01:43:55;;;;;;;2.15;0.60;;;15.30;90.70;;;;;;4923712;29;20389;-70
2021/06/08 01:46:23;;;;;;;2.00;0.43;;;15.30;90.10;;;;;;4923972;29;20038;-69
2021/06/08 01:48:51;;;;;;;1.02;0.30;;;15.40;89.20;;;;;;4918855;29;20489;-68
2021/06/08 01:51:45;;;;;;;0.95;0.60;;;15.50;87.80;;;;;;4919492;29;20525;-70
2021/06/08 01:54:21;;;;;;;0.75;0.40;;;15.50;88.50;;;;;;4923502;29;20118;-68
2021/06/08 01:57:19;;;;;;;0.70;0.40;;;15.50;89.00;;;;;;4923858;29;20031;-69
2021/06/08 02:00:25;;;;;;;1.42;0.98;;;15.60;88.30;;;;;;4902089;29;20228;-69
2021/06/08 02:02:56;;;;;;;1.40;0.80;;;15.60;89.00;;;;;;4923508;29;20086;-70
2021/06/08 02:05:50;;;;;;;0.30;0.30;;;15.70;88.90;;;;;;4922903;29;20020;-69
2021/06/08 02:08:32;;;;;;;0.45;0.45;;;15.80;87.90;;;;;;4922758;29;20143;-69
2021/06/08 02:11:01;;;;;;;1.80;0.57;;;15.90;87.00;;;;;;4921432;29;20036;-68
2021/06/08 02:13:59;;;;;;;1.98;0.60;;;16.00;87.60;;;;;;4921653;29;20099;-67
2021/06/08 02:16:37;;;;;;;1.05;0.65;;;16.20;86.50;;;;;;4925384;29;20087;-68
2021/06/08 02:19:06;;;;;;;0.40;0.32;;;16.30;86.30;;;;;;4922853;29;20047;-70
2021/06/08 02:21:46;;;;;;;0.80;0.30;;;16.50;85.60;;;;;;4925267;29;20114;-67
2021/06/08 02:24:18;;;;;;;3.53;0.60;;;16.70;84.50;;;;;;4923538;29;20042;-69
2021/06/08 02:26:46;;;;;;;2.38;0.75;;;17.00;83.90;;;;;;4923679;29;20386;-68
2021/06/08 02:29:15;;;;;;;1.00;0.40;;;17.00;83.20;;;;;;4921617;29;20517;-69
2021/06/08 02:31:44;;;;;;;0.73;0.60;;;16.90;83.30;;;;;;4922736;29;20495;-68
2021/06/08 02:34:16;;;;;;;1.42;0.70;;;16.90;83.60;;;;;;4922748;29;20036;-69
2021/06/08 02:36:45;;;;;;;0.60;0.52;;;17.00;84.60;;;;;;4923713;29;20086;-69
2021/06/08 02:39:15;;;;;;;0.68;0.47;;;17.40;82.20;;;;;;4922586;29;20589;-72
2021/06/08 02:41:43;;;;;;;0.63;0.45;;;17.60;81.20;;;;;;4921558;28;20463;-69
2021/06/08 02:44:11;;;;;;;0.85;0.43;;;18.10;79.90;;;;;;4924124;29;20054;-69
2021/06/08 02:46:39;;;;;;;1.50;0.43;;;18.90;77.00;;;;;;4927993;29;20036;-70
2021/06/08 02:49:08;;;;;;;2.63;0.50;;;19.80;75.80;;;;;;4930821;29;20039;-67
2021/06/08 02:51:37;;;;;;;4.28;0.63;;;20.10;72.80;;;;;;4928171;29;20035;-68
2021/06/08 02:54:05;;;;;;;1.67;0.45;;;20.30;73.30;;;;;;4926527;29;20118;-69
2021/06/08 02:56:33;;;;;;;1.65;0.35;;;20.40;72.70;;;;;;4930319;29;20513;-67
2021/06/08 02:59:01;;;;;;;2.03;0.57;;;20.80;71.10;;;;;;4924403;29;20513;-67
2021/06/08 03:01:30;;;;;;;0.82;0.20;;;21.00;69.80;;;;;;4925325;29;20039;-69
2021/06/08 03:04:01;;;;;;;1.50;0.88;;;20.80;69.30;;;;;;4924616;29;20400;-69
2021/06/08 03:06:35;;;;;;;0.43;0.30;;;20.70;68.60;;;;;;4931333;29;20495;-69
2021/06/08 03:09:12;;;;;;;4.25;0.50;;;20.60;70.20;;;;;;4929429;29;20066;-68
2021/06/08 03:11:40;;;;;;;2.75;0.70;;;20.40;69.90;;;;;;4930667;29;20042;-68
2021/06/08 03:14:15;;;;;;;3.65;0.38;;;20.30;71.40;;;;;;4929596;29;20028;-68
2021/06/08 03:16:55;;;;;;;1.75;0.60;;;20.40;72.20;;;;;;4924609;29;20112;-68
2021/06/08 03:19:32;;;;;;;0.65;0.30;;;20.60;70.80;;;;;;4926308;29;20047;-68
2021/06/08 03:22:06;;;;;;;3.83;0.40;;;20.60;71.20;;;;;;4927065;29;20317;-68
2021/06/08 03:24:39;;;;;;;1.17;0.30;;;20.50;70.90;;;;;;4928302;29;20080;-66
2021/06/08 03:27:09;;;;;;;0.70;0.20;;;20.10;71.70;;;;;;4932828;29;20024;-70
2021/06/08 03:29:37;;;;;;;0.60;0.25;;;20.20;71.70;;;;;;4931409;29;20479;-69
2021/06/08 03:32:06;;;;;;;0.95;0.20;;;20.00;72.90;;;;;;4912076;29;20042;-66
2021/06/08 03:34:36;;;;;;;1.17;0.22;;;19.70;72.70;;;;;;4929884;29;20036;-68
2021/06/08 03:37:03;;;;;;;1.20;0.32;;;19.50;73.00;;;;;;4929178;29;20031;-68
2021/06/08 03:39:32;;;;;;;1.65;0.40;;;19.40;73.90;;;;;;4925531;29;20082;-67
2021/06/08 03:42:00;;;;;;;0.98;0.40;;;19.30;74.20;;;;;;4928452;29;20099;-66
2021/06/08 03:44:28;;;;;;;0.45;0.30;;;19.20;74.40;;;;;;4928101;29;20398;-68
2021/06/08 03:46:56;;;;;;;1.48;0.20;;;19.10;74.10;;;;;;4929498;29;20036;-69
2021/06/08 03:49:24;;;;;;;0.75;0.38;;;18.90;74.40;;;;;;4930388;29;20478;-67
2021/06/08 03:51:55;;;;;;;4.50;0.50;;;18.90;73.20;;;;;;4929234;29;20486;-66
2021/06/08 03:54:23;;;;;;;0.80;0.40;;;18.90;74.90;;;;;;4927154;29;20604;-66
2021/06/08 03:56:53;;;;;;;0.30;0.20;;;18.90;74.50;;;;;;4924256;29;20032;-65
2021/06/08 03:59:26;;;;;;;0.98;0.28;;;19.00;74.90;;;;;;4929639;29;20040;-66
2021/06/08 04:01:54;;;;;;;0.60;0.47;;;19.00;75.20;;;;;;4927174;29;20034;-68
2021/06/08 04:04:22;;;;;;;1.08;0.40;;;19.00;74.90;;;;;;4926699;29;20026;-67
2021/06/08 04:06:50;;;;;;;0.98;0.40;;;19.00;75.10;;;;;;4923919;29;20038;-66
2021/06/08 04:09:20;;;;;;;1.05;0.38;;;18.90;75.70;;;;;;4923375;29;20043;-65
2021/06/08 04:11:52;;;;;;;0.30;0.20;;;18.80;75.20;;;;;;4928385;29;20044;-66
2021/06/08 04:14:21;;;;;;;0.43;0.30;;;18.80;75.60;;;;;;4927749;29;20086;-68
2021/06/08 04:16:49;;;;;;;1.95;0.40;;;18.80;75.70;;;;;;4910525;29;20388;-67
2021/06/08 04:19:16;;;;;;;0.40;0.20;;;18.80;75.50;;;;;;4928560;29;20043;-68
2021/06/08 04:21:48;;;;;;;1.27;0.32;;;18.90;74.90;;;;;;4927310;29;20024;-67
2021/06/08 04:24:16;;;;;;;0.20;0.20;;;18.70;74.80;;;;;;4923607;29;20406;-68
2021/06/08 04:26:43;;;;;;;0.82;0.30;;;18.60;76.00;;;;;;4924446;29;20119;-67
2021/06/08 04:29:10;;;;;;;0.85;0.40;;;18.50;76.40;;;;;;4925123;29;20036;-69
2021/06/08 04:31:38;;;;;;;2.03;0.40;;;18.40;77.50;;;;;;4925957;29;20146;-68
2021/06/08 04:34:05;;;;;;;0.20;0.20;;;18.40;76.50;;;;;;4925006;29;20032;-67
2021/06/08 04:36:33;;;;;;;0.98;0.25;;;18.30;76.50;;;;;;4924973;29;20502;-69
2021/06/08 04:39:00;;;;;;;1.10;0.28;;;18.20;77.20;;;;;;4927034;29;20043;-66
2021/06/08 04:41:28;;;;;;;0.65;0.30;;;18.10;78.00;;;;;;4927211;29;20055;-67
2021/06/08 04:43:57;;;;;;;0.63;0.55;;;18.10;77.50;;;;;;4924779;29;20038;-69
2021/06/08 04:46:24;;;;;;;0.73;0.38;;;18.00;77.70;;;;;;4930531;29;20031;-69
2021/06/08 04:48:51;;;;;;;1.00;0.28;;;18.00;78.80;;;;;;4926355;29;20483;-66
2021/06/08 04:51:20;;;;;;;1.70;0.50;;;18.00;78.00;;;;;;4924844;29;20031;-67
2021/06/08 04:53:47;;;;;;;0.73;0.47;;;18.00;78.90;;;;;;4926500;29;20119;-67
2021/06/08 04:56:15;;;;;;;1.60;0.40;;;17.90;78.30;;;;;;4924158;29;20499;-67
2021/06/08 04:58:42;;;;;;;1.00;0.30;;;17.90;78.70;;;;;;4924579;29;20047;-65
2021/06/08 05:01:38;;;;;;;4.38;0.43;;;17.90;79.00;;;;;;4922079;29;20043;-69
2021/06/08 05:04:11;;;;;;;1.08;0.63;;;17.80;79.40;;;;;;4924954;29;20067;-67
2021/06/08 05:06:44;;;;;;;1.25;0.43;;;17.80;79.70;;;;;;4922680;29;20459;-67
2021/06/08 05:09:20;;;;;;;2.75;0.75;;;17.80;79.20;;;;;;4920475;29;20063;-68
2021/06/08 05:11:56;;;;;;;1.23;0.30;;;17.80;78.90;;;;;;4926494;29;20045;-66
2021/06/08 05:14:27;;;;;;;1.48;0.38;;;17.90;79.00;;;;;;4923162;29;20028;-67
2021/06/08 05:16:55;;;;;;;4.90;1.08;;;17.80;79.00;;;;;;4925069;29;20040;-68
2021/06/08 05:19:24;;;;;;;0.60;0.40;;;17.80;79.50;;;;;;4925582;29;20050;-66
2021/06/08 05:21:52;;;;;;;2.25;0.70;;;17.80;78.60;;;;;;4924627;29;20072;-66
2021/06/08 05:24:22;;;;;;;1.65;0.40;;;17.80;78.80;;;;;;4913495;29;20035;-66
2021/06/08 05:26:52;;;;;;;0.95;0.45;;;17.70;79.30;;;;;;4922026;29;20079;-67
2021/06/08 05:29:21;;;;;;;0.65;0.52;;;17.60;79.80;;;;;;4925766;29;20086;-68
2021/06/08 05:31:49;;;;;;;1.95;1.00;;;17.60;80.40;;;;;;4924317;29;20024;-69
2021/06/08 05:34:20;;;;;;;4.45;0.73;;;17.50;80.50;;;;;;4924887;29;20078;-68
2021/06/08 05:36:48;;;;;;;1.65;0.60;;;17.50;80.50;;;;;;4924457;29;20435;-67
2021/06/08 05:39:15;;;;;;;0.82;0.40;;;17.50;80.10;;;;;;4922752;29;20071;-67
2021/06/08 05:41:43;;;;;;;1.35;0.40;;;17.50;80.60;;;;;;4922969;29;20145;-69
2021/06/08 05:44:11;;;;;;;1.65;0.55;;;17.40;80.60;;;;;;4923677;29;20051;-70
2021/06/08 05:46:39;;;;;;;1.77;0.47;;;17.40;81.00;;;;;;4924776;29;20050;-71
2021/06/08 05:49:08;;;;;;;1.20;0.50;;;17.30;81.30;;;;;;4924020;29;20046;-71
2021/06/08 05:51:41;;;;;;;1.88;0.70;;;17.30;82.50;;;;;;4924042;29;20028;-69
2021/06/08 05:54:10;;;;;;;0.75;0.50;;;17.20;82.20;;;;;;4905128;29;20407;-70
2021/06/08 05:56:39;;;;;;;1.60;0.95;;;17.20;82.20;;;;;;4923242;29;20031;-69
2021/06/08 05:59:07;;;;;;;1.23;0.73;;;17.20;82.40;;;;;;4923323;29;20090;-70
2021/06/08 06:01:35;;;;;;;1.88;0.80;;;17.20;82.90;;;;;;4924863;29;20052;-70
2021/06/08 06:04:04;;;;;;;1.88;0.82;;;17.20;83.70;;;;;;4924980;29;20135;-69
2021/06/08 06:06:32;;;;;;;4.57;1.27;;;17.10;85.00;;;;;;4909319;29;20053;-69
2021/06/08 06:09:00;;;;;;;2.88;1.30;;;17.00;86.30;;;;;;4924123;29;20040;-69
2021/06/08 06:11:30;;;;;;;3.25;1.50;;;16.90;87.30;;;;;;4926902;29;20024;-70
2021/06/08 06:14:02;;;;;;;0.52;0.50;;;16.80;87.30;;;;;;4922027;29;20030;-68
2021/06/08 06:16:36;;;;;;;1.92;0.50;;;16.80;86.80;;;;;;4925041;29;20218;-68
2021/06/08 06:19:09;;;;;;;1.70;1.15;;;16.80;86.90;;;;;;4923010;29;21768;-69
2021/06/08 06:21:37;;;;;;;4.43;0.90;;;16.80;87.50;;;;;;4928976;29;20487;-69
2021/06/08 06:24:06;;;;;;;4.10;1.23;;;16.70;88.10;;;;;;4927062;29;20039;-69
2021/06/08 06:26:35;;;;;;;3.78;1.20;;;16.60;90.00;;;;;;4929319;29;20062;-68
2021/06/08 06:29:05;;;;;;;1.52;0.90;;;16.40;90.70;;;;;;4926408;29;20383;-71
2021/06/08 06:31:33;;;;;;;1.50;0.70;;;16.30;90.60;;;;;;4928593;29;20024;-68
2021/06/08 06:34:01;;;;;;;1.02;0.55;;;16.20;90.80;;;;;;4925552;29;20074;-68
2021/06/08 06:36:32;;;;;;;2.22;0.40;;;16.10;91.40;;;;;;4927142;29;20019;-67
2021/06/08 06:39:23;;;;;;;0.40;0.40;;;16.00;91.50;;;;;;4924667;29;20498;-68
2021/06/08 06:41:54;;;;;;;0.63;0.43;;;16.00;91.60;;;;;;4927804;29;20104;-67
2021/06/08 06:44:23;;;;;;;1.05;0.43;;;16.00;91.70;;;;;;4926546;29;20090;-71
2021/06/08 06:46:53;;;;;;;0.52;0.40;;;15.90;91.70;;;;;;4927306;29;20483;-69
2021/06/08 06:49:24;;;;;;;0.77;0.38;;;15.80;92.10;;;;;;4928554;29;20074;-71
2021/06/08 06:51:54;;;;;;;1.70;0.40;;;15.80;92.20;;;;;;4928293;29;20067;-69
2021/06/08 06:54:23;;;;;;;0.80;0.60;;;15.80;92.30;;;;;;4927372;29;20023;-68
2021/06/08 06:56:50;;;;;;;0.77;0.65;;;15.70;92.60;;;;;;4927564;29;20067;-70
2021/06/08 06:59:19;;;;;;;1.35;0.47;;;15.70;92.80;;;;;;4927293;29;20071;-70
2021/06/08 07:01:48;;;;;;;2.38;0.52;;;15.60;93.50;;;;;;4925702;29;20123;-69
2021/06/08 07:04:17;;;;;;;1.83;0.95;;;15.50;93.90;;;;;;4926703;29;20042;-69
2021/06/08 07:06:45;;;;;;;1.52;0.60;;;15.50;93.90;;;;;;4929602;29;20046;-68
2021/06/08 07:09:13;;;;;;;1.42;1.33;;;15.40;94.00;;;;;;4927002;29;20063;-70
2021/06/08 07:11:43;;;;;;;1.95;0.70;;;15.40;94.30;;;;;;4926088;29;20051;-70
2021/06/08 07:14:11;;;;;;;1.92;0.85;;;15.40;94.10;;;;;;4927953;29;20035;-68
2021/06/08 07:16:38;;;;;;;4.10;1.05;;;15.40;94.00;;;;;;4924447;29;20035;-68
2021/06/08 07:19:07;;;;;;;1.60;0.77;;;15.40;94.20;;;;;;4926486;29;20494;-68
2021/06/08 07:21:35;;;;;;;0.82;0.77;;;15.30;94.10;;;;;;4925543;29;20518;-68
2021/06/08 07:24:05;;;;;;;1.75;0.70;;;15.30;94.00;;;;;;4925226;29;20034;-69
2021/06/08 07:26:33;;;;;;;2.13;0.80;;;15.20;94.70;;;;;;4909975;29;21960;-68
2021/06/08 07:29:02;;;;;;;1.63;0.90;;;15.20;95.00;;;;;;4925778;29;20034;-70
2021/06/08 07:31:54;;;;;;;2.60;0.73;;;15.00;95.30;;;;;;4928023;29;20110;-68
2021/06/08 07:35:01;;;;;;;4.28;1.10;;;15.00;95.40;;;;;;4923673;29;20498;-75
2021/06/08 07:37:33;;;;;;;4.82;1.10;;;15.00;95.30;;;;;;4898104;29;20451;-71
2021/06/08 07:40:11;;;;;;;2.47;1.38;;;15.00;95.10;;;;;;4911283;29;20446;-69
2021/06/08 07:42:52;;;;;;;1.15;0.90;;;15.00;95.70;;;;;;4906645;29;20154;-70
2021/06/08 07:45:23;;;;;;;2.30;0.90;;;15.00;96.00;;;;;;4926241;29;20035;-73
2021/06/08 07:47:55;;;;;;;4.72;1.02;;;14.90;96.20;;;;;;4926657;29;20032;-72
2021/06/08 07:50:25;;;;;;;2.53;1.30;;;14.90;96.50;;;;;;4927297;29;20028;-69
2021/06/08 07:52:53;;;;;;;1.73;1.20;;;14.90;96.70;;;;;;4927546;29;20474;-68
2021/06/08 07:55:21;;;;;;;4.68;2.10;;;14.80;96.50;;;;;;4925733;29;20040;-68
2021/06/08 07:57:49;;;;;;;3.08;1.98;;;14.80;96.00;;;;;;4925999;29;20107;-66
2021/06/08 08:00:17;;;;;;;2.78;1.73;;;14.80;95.70;;;;;;4925424;29;20140;-68
2021/06/08 08:02:50;;;;;;;3.40;2.47;;;14.80;95.80;;;;;;4925884;29;20402;-72
2021/06/08 08:05:19;;;;;;;4.78;2.75;;;14.80;96.60;;;;;;4925503;29;20031;-68
2021/06/08 08:07:48;;;;;;;4.35;3.38;;;14.80;96.60;;;;;;4925998;29;20119;-69
2021/06/08 08:10:20;;;;;;;4.40;2.15;;;14.70;96.80;;;;;;4922207;29;20050;-67
2021/06/08 08:12:48;;;;;;;3.90;2.30;;;14.80;96.90;;;;;;4927585;29;20031;-69
2021/06/08 08:15:17;;;;;;;5.03;2.17;;;14.70;97.30;;;;;;4927434;29;20028;-69
2021/06/08 08:17:45;;;;;;;3.85;2.45;;;14.60;98.50;;;;;;4925743;29;20689;-70
2021/06/08 08:20:13;;;;;;;7.93;4.00;;;14.60;98.90;;;;;;4926855;29;20482;-69
2021/06/08 08:22:40;;;;;;;4.80;4.30;;;14.40;99.60;;;;;;4926183;29;20391;-68
2021/06/08 08:25:08;;;;;;;6.63;4.45;;;14.30;99.50;;;;;;4926817;29;20112;-71
2021/06/08 08:27:35;;;;;;;4.88;3.33;;;14.20;99.90;;;;;;4927204;29;20036;-70
2021/06/08 08:30:05;;;;;;;6.10;2.97;;;14.20;99.90;;;;;;4925861;29;20031;-69
2021/06/08 08:32:32;;;;;;;5.82;3.45;;;14.10;99.90;;;;;;4927011;29;20048;-71
2021/06/08 08:35:00;;;;;;;9.65;4.72;;;14.10;99.90;;;;;;4923412;29;20148;-72
2021/06/08 08:37:27;;;;;;;5.00;3.00;;;14.10;99.90;;;;;;4924994;29;20483;-72
2021/06/08 08:39:54;;;;;;;10.10;2.63;;;14.00;99.90;;;;;;4927012;29;20542;-72
2021/06/08 08:42:22;;;;;;;2.95;1.80;;;14.00;99.90;;;;;;4929098;29;20042;-71
2021/06/08 08:44:49;;;;;;;4.47;2.40;;;13.80;99.90;;;;;;4923172;29;20412;-70
2021/06/08 08:47:17;;;;;;;8.32;5.93;;;13.80;99.90;;;;;;4926609;29;20655;-70
2021/06/08 08:49:44;;;;;;;8.35;4.75;;;13.80;99.90;;;;;;4925774;29;20047;-72
2021/06/08 08:52:14;;;;;;;7.07;3.22;;;13.70;99.90;;;;;;4923810;28;20032;-71
2021/06/08 08:54:45;;;;;;;10.05;3.60;;;13.70;99.90;;;;;;4923602;29;20055;-70
2021/06/08 08:57:13;;;;;;;9.95;4.53;;;13.70;99.90;;;;;;4905644;29;20032;-70
2021/06/08 08:59:41;;;;;;;7.90;4.07;;;13.70;99.90;;;;;;4921397;29;20123;-70
2021/06/08 09:02:10;;;;;;;6.10;3.75;;;13.60;99.90;;;;;;4922911;29;20303;-68
2021/06/08 09:04:38;;;;;;;11.32;4.35;;;13.60;99.90;;;;;;4926373;29;20058;-68
2021/06/08 09:07:06;;;;;;;10.35;3.67;;;13.70;99.90;;;;;;4924006;29;20032;-68
2021/06/08 09:09:34;;;;;;;7.93;3.75;;;13.70;99.90;;;;;;4923275;29;20047;-71
2021/06/08 09:12:04;;;;;;;6.03;3.10;;;13.70;99.90;;;;;;4924360;29;20030;-70
2021/06/08 09:14:31;;;;;;;5.90;3.15;;;13.70;99.90;;;;;;4923586;29;20074;-72
2021/06/08 09:16:59;;;;;;;6.63;4.10;;;13.60;99.90;;;;;;4925201;29;20024;-69
2021/06/08 09:19:29;;;;;;;6.90;3.40;;;13.60;99.90;;;;;;4923942;29;20120;-68
2021/06/08 09:21:57;;;;;;;9.13;3.90;;;13.60;99.90;;;;;;4923104;29;20501;-68
2021/06/08 09:24:28;;;;;;;6.97;3.53;;;13.40;99.90;;;;;;4923921;29;20111;-69
2021/06/08 09:27:01;;;;;;;10.13;4.72;;;13.30;99.90;;;;;;4923988;29;20028;-70
2021/06/08 09:29:44;;;;;;;11.57;5.57;;;13.20;99.90;;;;;;4924897;29;20023;-68
2021/06/08 09:32:23;;;;;;;4.40;3.28;;;13.10;99.90;;;;;;4921951;29;20098;-70
2021/06/08 09:34:52;;;;;;;4.85;2.55;;;13.00;99.90;;;;;;4926457;29;20381;-69
2021/06/08 09:37:42;;;;;;;5.97;2.22;;;13.00;99.90;;;;;;4924978;29;20038;-68
2021/06/08 09:40:26;;;;;;;3.90;1.90;;;12.90;99.90;;;;;;4921951;29;20107;-71
2021/06/08 09:43:09;;;;;;;3.33;1.88;;;12.80;99.90;;;;;;4922679;29;20027;-70
2021/06/08 09:45:44;;;;;;;2.10;1.58;;;12.80;99.90;;;;;;4925422;29;20039;-70
2021/06/08 09:48:12;;;;;;;2.83;1.08;;;12.70;99.90;;;;;;4925528;29;20035;-70
2021/06/08 09:50:45;;;;;;;1.63;1.30;;;12.60;99.90;;;;;;4925881;29;20019;-71
2021/06/08 09:53:30;;;;;;;6.60;2.00;;;12.60;99.90;;;;;;4927454;29;20378;-71
2021/06/08 09:56:04;;;;;;;2.33;1.30;;;12.60;99.90;;;;;;4923363;29;20499;-70
2021/06/08 09:58:33;;;;;;;3.35;1.48;;;12.60;99.90;;;;;;4923493;29;20462;-70
2021/06/08 10:01:27;;;;;;;1.65;0.85;;;12.50;99.90;;;;;;4925313;29;20060;-71
2021/06/08 10:03:55;;;;;;;1.55;1.02;;;12.50;99.90;;;;;;4926296;29;20031;-71
2021/06/08 10:06:30;;;;;;;2.10;1.35;;;12.50;99.90;;;;;;4926420;29;20103;-70
2021/06/08 10:08:59;;;;;;;5.43;2.03;;;12.50;99.90;;;;;;4923172;29;20067;-70
2021/06/08 10:11:38;;;;;;;2.67;1.45;;;12.50;99.90;;;;;;4924738;29;20052;-72
2021/06/08 10:14:19;;;;;;;2.75;1.55;;;12.50;99.90;;;;;;4927359;29;20035;-69
2021/06/08 10:17:00;;;;;;;2.67;1.55;;;12.50;99.90;;;;;;4927521;29;20383;-71
2021/06/08 10:19:28;;;;;;;2.38;0.98;;;12.50;99.90;;;;;;4923187;29;20032;-69
2021/06/08 10:21:56;;;;;;;1.50;1.00;;;12.50;99.90;;;;;;4924899;29;20380;-70
2021/06/08 10:24:27;;;;;;;1.85;1.60;;;12.50;99.90;;;;;;4925996;29;20082;-70
2021/06/08 10:26:59;;;;;;;4.78;1.98;;;12.40;99.90;;;;;;4925179;29;20036;-69
2021/06/08 10:29:34;;;;;;;6.38;1.90;;;12.50;99.90;;;;;;4923161;29;20031;-70
2021/06/08 10:32:02;;;;;;;2.88;1.83;;;12.50;99.90;;;;;;4923255;29;20166;-70
2021/06/08 10:34:29;;;;;;;2.25;1.88;;;12.50;99.90;;;;;;4922607;29;20038;-70
2021/06/08 10:36:57;;;;;;;1.85;1.40;;;12.50;99.90;;;;;;4924840;29;20100;-70
2021/06/08 10:39:29;;;;;;;2.17;1.13;;;12.50;99.90;;;;;;4926050;29;20040;-69
2021/06/08 10:41:58;;;;;;;3.22;1.33;;;12.50;99.90;;;;;;4926121;29;20028;-70
2021/06/08 10:44:29;;;;;;;2.80;1.40;;;12.40;99.90;;;;;;4909628;29;20406;-69
2021/06/08 10:47:38;;;;;;;2.78;1.48;;;12.40;99.90;;;;;;4921445;29;20075;-69
2021/06/08 10:50:33;;;;;;;4.80;2.08;;;12.40;99.90;;;;;;4927823;29;20093;-69
2021/06/08 10:53:01;;;;;;;3.60;1.40;;;12.40;99.90;;;;;;4927039;29;20028;-70
2021/06/08 10:55:38;;;;;;;2.25;1.70;;;12.40;99.90;;;;;;4908514;29;20399;-70
2021/06/08 10:58:07;;;;;;;2.45;1.90;;;12.40;99.90;;;;;;4929284;29;20039;-71
2021/06/08 11:00:40;;;;;;;4.95;2.60;;;12.40;99.90;;;;;;4923001;29;20123;-70
2021/06/08 11:03:10;;;;;;;5.53;2.75;;;12.40;99.90;;;;;;4920773;29;20050;-70
2021/06/08 11:05:58;;;;;;;6.78;3.30;;;12.40;99.90;;;;;;4925388;29;20374;-70
2021/06/08 11:08:59;;;;;;;6.13;3.65;;;12.40;99.90;;;;;;4925993;29;20036;-69
2021/06/08 11:11:51;;;;;;;5.40;3.67;;;12.40;99.90;;;;;;4911904;29;20040;-68
2021/06/08 11:14:37;;;;;;;10.68;6.10;;;12.30;99.90;;;;;;4927712;29;20035;-69
2021/06/08 11:17:11;;;;;;;8.30;6.10;;;12.30;99.90;;;;;;4929210;29;20749;-69
2021/06/08 11:20:05;;;;;;;9.65;6.07;;;12.40;99.90;;;;;;4947909;28;20043;-70
2021/06/08 11:22:35;;;;;;;7.85;5.72;;;12.30;99.90;;;;;;4927672;29;20036;-72
2021/06/08 11:25:05;;;;;;;7.55;4.57;;;12.30;99.90;;;;;;4928857;29;20032;-68
2021/06/08 11:27:57;;;;;;;6.55;4.28;;;12.30;99.90;;;;;;4926003;29;21081;-69
2021/06/08 11:30:27;;;;;;;4.80;3.42;;;12.40;99.90;;;;;;4927883;29;20042;-68
2021/06/08 11:32:56;;;;;;;6.45;4.10;;;12.30;99.90;;;;;;4926665;29;20039;-70
2021/06/08 11:35:32;;;;;;;5.88;3.60;;;12.40;99.90;;;;;;4927463;29;20390;-69
2021/06/08 11:38:24;;;;;;;5.05;4.40;;;12.30;99.90;;;;;;4927470;29;20154;-69
2021/06/08 11:41:02;;;;;;;6.22;4.50;;;12.40;99.90;;;;;;4926843;29;20435;-70
2021/06/08 11:43:30;;;;;;;6.38;4.38;;;12.40;99.90;;;;;;4927596;29;20446;-70
2021/06/08 11:46:03;;;;;;;6.25;4.55;;;12.40;99.90;;;;;;4925693;29;20035;-69
2021/06/08 11:48:44;;;;;;;6.95;4.70;;;12.40;99.90;;;;;;4925193;29;20083;-69
2021/06/08 11:51:24;;;;;;;5.43;4.07;;;12.30;99.90;;;;;;4926530;29;20028;-69
2021/06/08 11:54:03;;;;;;;4.75;4.00;;;12.30;99.90;;;;;;4927279;29;20031;-69
2021/06/08 11:56:58;;;;;;;5.70;4.88;;;12.20;99.90;;;;;;4925942;29;20384;-71
2021/06/08 11:59:27;;;;;;;9.63;5.15;;;12.30;99.90;;;;;;4923168;29;20050;-69
2021/06/08 12:02:00;;;;;;;5.70;3.83;;;12.20;99.90;;;;;;4924716;29;20044;-69
2021/06/08 12:04:30;;;;;;;5.88;5.18;;;12.20;99.90;;;;;;4925911;29;20553;-69
2021/06/08 12:07:07;;;;;;;5.65;4.47;;;12.20;99.90;;;;;;4927719;29;20024;-69
2021/06/08 12:09:46;;;;;;;5.90;4.22;;;12.20;99.90;;;;;;4925565;29;20028;-71
2021/06/08 12:12:15;;;;;;;4.25;3.55;;;12.20;99.90;;;;;;4922537;29;20035;-70
2021/06/08 12:14:51;;;;;;;3.00;2.65;;;12.10;99.90;;;;;;4925244;29;20090;-67
2021/06/08 12:17:18;;;;;;;;;;;12.10;99.90;;;;;;4926113;29;20039;-69
2021/06/08 12:19:46;;;;;;;7.50;5.88;;;12.10;99.90;;;;;;4926009;29;19930;-70
2021/06/08 12:22:25;;;;;;;5.50;5.00;;;12.10;99.90;;;;;;4926855;29;20023;-69
2021/06/08 12:25:01;;;;;;;7.10;6.05;;;12.00;99.90;;;;;;4929935;29;20036;-68
2021/06/08 12:27:42;;;;;;;18.73;10.63;;;12.00;99.90;;;;;;4926179;29;20356;-69
2021/06/08 12:30:12;;;;;;;11.48;9.55;;;12.00;99.90;;;;;;4930786;29;20031;-70
2021/06/08 12:32:41;;;;;;;12.18;8.50;;;12.00;99.90;;;;;;4931991;29;20028;-69
2021/06/08 12:35:34;;;;;;;16.42;9.82;;;12.00;99.90;;;;;;4930884;29;20035;-70
2021/06/08 12:38:09;;;;;;;18.75;11.55;;;12.00;99.90;;;;;;4914041;29;20047;-68
2021/06/08 12:40:36;;;;;;;17.98;11.35;;;12.00;99.90;;;;;;4927502;29;20047;-69
2021/06/08 12:43:05;;;;;;;13.82;9.48;;;12.10;99.90;;;;;;4934220;29;20040;-68
2021/06/08 12:45:33;;;;;;;12.45;8.82;;;12.10;99.90;;;;;;4927491;29;20102;-70
2021/06/08 12:48:01;;;;;;;11.27;7.90;;;12.10;99.90;;;;;;4926000;29;20024;-69
2021/06/08 12:50:35;;;;;;;12.60;9.95;;;12.10;99.90;;;;;;4931652;29;20020;-68
2021/06/08 12:53:05;;;;;;;13.88;9.38;;;12.10;99.90;;;;;;4930854;29;20024;-71
2021/06/08 12:55:34;;;;;;;15.25;8.85;;;12.00;99.90;;;;;;4928462;29;20075;-68
2021/06/08 12:58:03;;;;;;;14.35;9.98;;;12.00;99.90;;;;;;4924908;29;20044;-71
2021/06/08 13:00:35;;;;;;;11.88;7.07;;;12.00;99.90;;;;;;4931847;29;20094;-71
2021/06/08 13:03:06;;;;;;;9.73;6.68;;;11.90;99.90;;;;;;4927623;29;20526;-69
2021/06/08 13:05:36;;;;;;;8.82;6.10;;;11.90;99.90;;;;;;4927465;29;20084;-68
2021/06/08 13:08:06;;;;;;;8.63;5.53;;;11.90;99.90;;;;;;4923287;29;20546;-69